Rawlins, WY (82301)

12:43 PM MDT on September 23, 2014 (GMT -0600)
Downtown | Change Station
CLOSE
Current Station
Personal Weather Station
Location: Sinclair, Wy
Elevation: 6611 ft
Nearby Weather Stations

Elev 6611 ft 41.78 °N, 107.12 °W | Updated 3 seconds ago

Clear
Clear
71.7 °F
Feels Like 77 °F
N
12.8
Wind Variable Wind from WSW
Gusts 16.5 mph

Today
High -- | Low -- °F
--% Chance of Precip.
Yesterday
High -- | Low -- °F
Precip. -- in
6:57 AM 7:04 PM
Waning Crescent, 0% visible
Pressure 30.03 in
Visibility 10.0 miles
Clouds Clear
Heat Index 77 °F
Dew Point 48 °F
Humidity 43%
Rainfall 0.00 in
Snow Depth 0 in , 0 in , 1 in
UV 7 out of 12
Pollen 5.70 out of 12
Air Quality Not available.
Flu Activity Not available.
METAR KRWL 231753Z AUTO 27014G25KT 10SM CLR 19/05 A3025 RMK AO2 PK WND 25026/1710 SLP167 T01940050 10194 20094 50002

More Conditions Fewer Conditions

Pressure 30.03 in
Visibility 10.0 miles
Clouds Clear
Heat Index 77 °F
Dew Point 48 °F
Humidity 43%
Rainfall 0.00 in
Snow Depth 0 in , 0 in , 1 in
UV 7 out of 12
Pollen 5.70 out of 12
Air Quality Not available.
Flu Activity Not available.
METAR KRWL 231753Z AUTO 27014G25KT 10SM CLR 19/05 A3025 RMK AO2 PK WND 25026/1710 SLP167 T01940050 10194 20094 50002

More Conditions Fewer Conditions

10-Day Weather Forecast

Almanac

Astronomy

Sep. 23, 2014 Rise Set
Actual Time 6:57 AM MDT 7:04 PM MDT
Civil Twilight 6:29 AM MDT 7:32 PM MDT
Nautical Twilight 5:57 AM MDT 8:04 PM MDT
Astronomical Twilight 5:23 AM MDT 8:37 PM MDT
Moon 6:24 AM MDT 6:44 PM MDT
Length of Visible Light 13h 02m
Length of Day
12h 06m
Tomorrow will be 2m 47s shorter.
Waning Crescent, 0% of the Moon is Illuminated
Today
Waning Crescent
Sep 24
New
Oct 1
First Quarter
Oct 8
Full
Oct 15
Last Quarter

Today's Extremes

State Highs State Lows

Community

WunderPhotos

Upload Photos

1,755,775 photos uploaded!

Nearby

Snow Depth

Station Depth Elevation
Reno Hill 0 in 8500 ft
Gros Ventre Summit 0 in 8750 ft
Kendall R.S. 1 in 7740 ft
Lewis Lake Divide 0 in 7850 ft
Cole Canyon 0 in 5910 ft

Earthquake Activity

City Distance Mag. Time & Date
No recent earthquake activity has been reported nearby.
Minimum magnitude displayed is 2.5.

Coastal Water Temperatures

Place Temperature
No Stations Reporting

Nearby Weather Stations